East Orleans, MA

5:39 AM EST on December 07, 2016 (GMT -0500)
Countryside Orleans | | Change Station

Elev 95 ft 41.79 °N, 69.94 °W | Updated 11 minutes ago

Overcast
Overcast
41.5 °F
Feels Like 42 °F
N
1.0
Wind Variable Wind from South
Gusts 6.0 mph

Today
High -- | Low -- °F
--% Chance of Precip.
Yesterday
High -- | Low -- °F
Precip. -- in
Pressure 29.89 in
Visibility 10.0 miles
Clouds Mostly Cloudy 2400 ft
Overcast 6500 ft
Windchill 42 °F
Dew Point 36 °F
Humidity 80%
Rainfall 0.00 in
Snow Depth Not available.
6:53 AM 4:08 PM
Waxing Crescent, 51% visible
SPECI KCQX 071016Z AUTO 06011KT 10SM BKN024 OVC065 06/02 A2989 RMK AO2 T00610017
Pressure 29.89 in
Visibility 10.0 miles
Clouds Mostly Cloudy 2400 ft
Overcast 6500 ft
Windchill 42 °F
Dew Point 36 °F
Humidity 80%
Rainfall 0.00 in
Snow Depth Not available.
6:53 AM 4:08 PM
Waxing Crescent, 51% visible
SPECI KCQX 071016Z AUTO 06011KT 10SM BKN024 OVC065 06/02 A2989 RMK AO2 T00610017

10-Day Weather Forecast

Almanac

Astronomy

Dec. 07, 2016 Rise Set
Actual Time
Civil Twilight
Nautical Twilight
Astronomical Twilight
Moon
Length of Visible Light
Length of Day
Tomorrow will be .
, % of the Moon is Illuminated

Today's Extremes

State Highs State Lows

Community

WunderPhotos

Upload Photos

1,956,111 photos uploaded!

WunderBlog® & News

Nearby

Air Quality

  Air Quality AQ Index Pollutant
Not available.

Snow Depth

Station Depth Elevation

Earthquake Activity

City Distance Mag. Time & Date
Minimum magnitude displayed is 2.5.

Coastal Water Temperatures

Place Temperature

Stations

Nearby Weather Stations

Station Location Temp. Windchill Dew Point Humidity Wind Precip. Elev Updated Type
                   

Watches & Warnings

There are currently no watches in effect.